sensor_id;sensor_type;location;lat;lon;timestamp;P1;durP1;ratioP1;P2;durP2;ratioP2
24729;SDS011;12832;52.392;13.066;2023-01-28T00:00:52;2.10;;;1.50;;
24729;SDS011;12832;52.392;13.066;2023-01-28T00:03:19;1.67;;;1.30;;
24729;SDS011;12832;52.392;13.066;2023-01-28T00:05:45;1.90;;;1.60;;
24729;SDS011;12832;52.392;13.066;2023-01-28T00:08:11;2.72;;;1.85;;
24729;SDS011;12832;52.392;13.066;2023-01-28T00:10:39;1.73;;;1.45;;
24729;SDS011;12832;52.392;13.066;2023-01-28T00:13:07;1.63;;;1.42;;
24729;SDS011;12832;52.392;13.066;2023-01-28T00:15:36;1.85;;;1.45;;
24729;SDS011;12832;52.392;13.066;2023-01-28T00:18:02;1.60;;;1.50;;
24729;SDS011;12832;52.392;13.066;2023-01-28T00:20:28;1.60;;;1.50;;
24729;SDS011;12832;52.392;13.066;2023-01-28T00:22:54;1.75;;;1.50;;
24729;SDS011;12832;52.392;13.066;2023-01-28T00:25:20;1.70;;;1.60;;
24729;SDS011;12832;52.392;13.066;2023-01-28T00:27:48;1.40;;;1.30;;
24729;SDS011;12832;52.392;13.066;2023-01-28T00:30:15;1.60;;;1.50;;
24729;SDS011;12832;52.392;13.066;2023-01-28T00:32:42;1.30;;;1.20;;
24729;SDS011;12832;52.392;13.066;2023-01-28T00:35:09;2.00;;;1.50;;
24729;SDS011;12832;52.392;13.066;2023-01-28T00:37:36;1.40;;;1.30;;
24729;SDS011;12832;52.392;13.066;2023-01-28T00:40:02;1.52;;;1.42;;
24729;SDS011;12832;52.392;13.066;2023-01-28T00:42:29;1.58;;;1.48;;
24729;SDS011;12832;52.392;13.066;2023-01-28T00:44:55;1.67;;;1.58;;
24729;SDS011;12832;52.392;13.066;2023-01-28T00:47:21;1.30;;;1.20;;
24729;SDS011;12832;52.392;13.066;2023-01-28T00:49:47;1.42;;;1.33;;
24729;SDS011;12832;52.392;13.066;2023-01-28T00:52:13;1.35;;;1.25;;
24729;SDS011;12832;52.392;13.066;2023-01-28T00:54:39;1.92;;;1.40;;
24729;SDS011;12832;52.392;13.066;2023-01-28T00:57:05;1.70;;;1.50;;
24729;SDS011;12832;52.392;13.066;2023-01-28T00:59:35;2.08;;;1.60;;
24729;SDS011;12832;52.392;13.066;2023-01-28T01:02:01;1.60;;;1.33;;
24729;SDS011;12832;52.392;13.066;2023-01-28T01:04:37;1.30;;;1.20;;
24729;SDS011;12832;52.392;13.066;2023-01-28T01:07:20;1.33;;;1.23;;
24729;SDS011;12832;52.392;13.066;2023-01-28T01:10:02;1.92;;;1.50;;
24729;SDS011;12832;52.392;13.066;2023-01-28T01:12:29;1.70;;;1.60;;
24729;SDS011;12832;52.392;13.066;2023-01-28T01:14:55;1.58;;;1.48;;
24729;SDS011;12832;52.392;13.066;2023-01-28T01:17:21;1.67;;;1.58;;
24729;SDS011;12832;52.392;13.066;2023-01-28T01:19:48;1.50;;;1.40;;
24729;SDS011;12832;52.392;13.066;2023-01-28T01:22:14;1.40;;;1.30;;
24729;SDS011;12832;52.392;13.066;2023-01-28T01:24:40;1.75;;;1.42;;
24729;SDS011;12832;52.392;13.066;2023-01-28T01:27:06;1.35;;;1.25;;
24729;SDS011;12832;52.392;13.066;2023-01-28T01:29:32;1.77;;;1.33;;
24729;SDS011;12832;52.392;13.066;2023-01-28T01:31:59;1.75;;;1.60;;
24729;SDS011;12832;52.392;13.066;2023-01-28T01:34:25;1.25;;;1.15;;
24729;SDS011;12832;52.392;13.066;2023-01-28T01:36:51;2.55;;;1.40;;
24729;SDS011;12832;52.392;13.066;2023-01-28T01:39:17;1.60;;;1.42;;
24729;SDS011;12832;52.392;13.066;2023-01-28T01:41:43;1.30;;;1.20;;
24729;SDS011;12832;52.392;13.066;2023-01-28T01:47:13;1.20;;;1.10;;
24729;SDS011;12832;52.392;13.066;2023-01-28T01:49:40;1.42;;;1.33;;
24729;SDS011;12832;52.392;13.066;2023-01-28T01:52:11;1.70;;;1.40;;
24729;SDS011;12832;52.392;13.066;2023-01-28T01:54:40;1.48;;;1.38;;
24729;SDS011;12832;52.392;13.066;2023-01-28T01:57:10;1.58;;;1.33;;
24729;SDS011;12832;52.392;13.066;2023-01-28T01:59:41;1.40;;;1.30;;
24729;SDS011;12832;52.392;13.066;2023-01-28T02:02:08;1.40;;;1.30;;
24729;SDS011;12832;52.392;13.066;2023-01-28T02:04:38;1.50;;;1.40;;
24729;SDS011;12832;52.392;13.066;2023-01-28T02:07:07;1.05;;;1.02;;
24729;SDS011;12832;52.392;13.066;2023-01-28T02:09:35;1.65;;;1.30;;
24729;SDS011;12832;52.392;13.066;2023-01-28T02:14:33;1.75;;;1.40;;
24729;SDS011;12832;52.392;13.066;2023-01-28T02:17:03;1.30;;;1.20;;
24729;SDS011;12832;52.392;13.066;2023-01-28T02:19:39;1.70;;;1.60;;
24729;SDS011;12832;52.392;13.066;2023-01-28T02:27:36;1.40;;;1.30;;
24729;SDS011;12832;52.392;13.066;2023-01-28T02:30:17;2.00;;;1.50;;
24729;SDS011;12832;52.392;13.066;2023-01-28T02:32:54;1.33;;;1.23;;
24729;SDS011;12832;52.392;13.066;2023-01-28T02:35:30;2.55;;;1.40;;
24729;SDS011;12832;52.392;13.066;2023-01-28T02:38:17;1.30;;;1.20;;
24729;SDS011;12832;52.392;13.066;2023-01-28T02:40:52;1.25;;;1.15;;
24729;SDS011;12832;52.392;13.066;2023-01-28T02:49:13;1.55;;;1.35;;
24729;SDS011;12832;52.392;13.066;2023-01-28T02:57:30;1.40;;;1.27;;
24729;SDS011;12832;52.392;13.066;2023-01-28T03:00:17;1.70;;;1.30;;
24729;SDS011;12832;52.392;13.066;2023-01-28T03:05:47;1.38;;;1.20;;
24729;SDS011;12832;52.392;13.066;2023-01-28T03:08:40;1.40;;;1.30;;
24729;SDS011;12832;52.392;13.066;2023-01-28T03:11:29;1.52;;;1.42;;
24729;SDS011;12832;52.392;13.066;2023-01-28T03:14:25;1.48;;;1.38;;
24729;SDS011;12832;52.392;13.066;2023-01-28T03:17:13;1.35;;;1.25;;
24729;SDS011;12832;52.392;13.066;2023-01-28T03:20:02;1.75;;;1.20;;
24729;SDS011;12832;52.392;13.066;2023-01-28T03:22:48;1.65;;;1.20;;
24729;SDS011;12832;52.392;13.066;2023-01-28T03:25:36;1.52;;;1.13;;
24729;SDS011;12832;52.392;13.066;2023-01-28T03:28:23;1.40;;;1.30;;
24729;SDS011;12832;52.392;13.066;2023-01-28T03:31:14;1.70;;;1.48;;
24729;SDS011;12832;52.392;13.066;2023-01-28T03:34:01;1.38;;;1.17;;
24729;SDS011;12832;52.392;13.066;2023-01-28T03:36:47;1.48;;;1.35;;
24729;SDS011;12832;52.392;13.066;2023-01-28T03:39:16;1.23;;;1.13;;
24729;SDS011;12832;52.392;13.066;2023-01-28T03:41:54;1.52;;;1.02;;
24729;SDS011;12832;52.392;13.066;2023-01-28T03:44:28;1.23;;;1.13;;
24729;SDS011;12832;52.392;13.066;2023-01-28T03:47:12;1.55;;;1.27;;
24729;SDS011;12832;52.392;13.066;2023-01-28T03:49:42;1.42;;;1.33;;
24729;SDS011;12832;52.392;13.066;2023-01-28T03:52:22;2.13;;;1.10;;
24729;SDS011;12832;52.392;13.066;2023-01-28T03:54:50;1.35;;;1.25;;
24729;SDS011;12832;52.392;13.066;2023-01-28T03:57:18;1.38;;;1.10;;
24729;SDS011;12832;52.392;13.066;2023-01-28T03:59:46;1.42;;;1.30;;
24729;SDS011;12832;52.392;13.066;2023-01-28T04:02:17;1.45;;;1.35;;
24729;SDS011;12832;52.392;13.066;2023-01-28T04:04:45;1.20;;;1.10;;
24729;SDS011;12832;52.392;13.066;2023-01-28T04:07:11;1.20;;;1.00;;
24729;SDS011;12832;52.392;13.066;2023-01-28T04:09:41;1.40;;;1.20;;
24729;SDS011;12832;52.392;13.066;2023-01-28T04:12:07;1.20;;;1.08;;
24729;SDS011;12832;52.392;13.066;2023-01-28T04:14:35;1.15;;;1.05;;
24729;SDS011;12832;52.392;13.066;2023-01-28T04:17:01;1.20;;;1.10;;
24729;SDS011;12832;52.392;13.066;2023-01-28T04:19:27;1.50;;;1.23;;
24729;SDS011;12832;52.392;13.066;2023-01-28T04:21:56;1.23;;;1.13;;
24729;SDS011;12832;52.392;13.066;2023-01-28T04:24:22;1.10;;;1.00;;
24729;SDS011;12832;52.392;13.066;2023-01-28T04:26:49;1.30;;;1.20;;
24729;SDS011;12832;52.392;13.066;2023-01-28T04:29:15;1.30;;;1.20;;
24729;SDS011;12832;52.392;13.066;2023-01-28T04:31:41;1.13;;;1.02;;
24729;SDS011;12832;52.392;13.066;2023-01-28T04:34:07;1.20;;;1.10;;
24729;SDS011;12832;52.392;13.066;2023-01-28T04:36:34;1.48;;;1.00;;
24729;SDS011;12832;52.392;13.066;2023-01-28T04:39:00;1.38;;;1.20;;
24729;SDS011;12832;52.392;13.066;2023-01-28T04:41:26;1.25;;;1.15;;
24729;SDS011;12832;52.392;13.066;2023-01-28T04:43:53;1.48;;;1.30;;
24729;SDS011;12832;52.392;13.066;2023-01-28T04:46:19;1.10;;;1.00;;
24729;SDS011;12832;52.392;13.066;2023-01-28T04:48:45;1.35;;;1.15;;
24729;SDS011;12832;52.392;13.066;2023-01-28T04:51:11;1.20;;;1.10;;
24729;SDS011;12832;52.392;13.066;2023-01-28T04:53:37;1.33;;;1.20;;
24729;SDS011;12832;52.392;13.066;2023-01-28T04:56:04;1.30;;;1.20;;
24729;SDS011;12832;52.392;13.066;2023-01-28T04:58:30;1.27;;;1.10;;
24729;SDS011;12832;52.392;13.066;2023-01-28T05:00:56;1.23;;;1.02;;
24729;SDS011;12832;52.392;13.066;2023-01-28T05:03:24;1.38;;;1.17;;
24729;SDS011;12832;52.392;13.066;2023-01-28T05:05:50;1.23;;;1.13;;
24729;SDS011;12832;52.392;13.066;2023-01-28T05:08:17;2.25;;;1.08;;
24729;SDS011;12832;52.392;13.066;2023-01-28T05:10:43;1.10;;;1.00;;
24729;SDS011;12832;52.392;13.066;2023-01-28T05:13:09;1.33;;;1.10;;
24729;SDS011;12832;52.392;13.066;2023-01-28T05:15:35;1.20;;;1.10;;
24729;SDS011;12832;52.392;13.066;2023-01-28T05:18:02;1.15;;;1.05;;
24729;SDS011;12832;52.392;13.066;2023-01-28T05:20:28;1.30;;;1.20;;
24729;SDS011;12832;52.392;13.066;2023-01-28T05:22:54;1.20;;;1.10;;
24729;SDS011;12832;52.392;13.066;2023-01-28T05:25:20;1.10;;;1.00;;
24729;SDS011;12832;52.392;13.066;2023-01-28T05:27:50;1.20;;;1.10;;
24729;SDS011;12832;52.392;13.066;2023-01-28T05:30:20;1.17;;;1.08;;
24729;SDS011;12832;52.392;13.066;2023-01-28T05:32:46;1.13;;;1.05;;
24729;SDS011;12832;52.392;13.066;2023-01-28T05:35:13;1.15;;;1.00;;
24729;SDS011;12832;52.392;13.066;2023-01-28T05:37:40;2.25;;;0.90;;
24729;SDS011;12832;52.392;13.066;2023-01-28T05:40:06;1.08;;;1.00;;
24729;SDS011;12832;52.392;13.066;2023-01-28T05:42:33;1.10;;;1.00;;
24729;SDS011;12832;52.392;13.066;2023-01-28T05:44:59;1.30;;;1.17;;
24729;SDS011;12832;52.392;13.066;2023-01-28T05:47:25;1.10;;;1.00;;
24729;SDS011;12832;52.392;13.066;2023-01-28T05:49:51;1.05;;;0.80;;
24729;SDS011;12832;52.392;13.066;2023-01-28T05:52:17;1.10;;;1.00;;
24729;SDS011;12832;52.392;13.066;2023-01-28T05:54:43;1.35;;;0.98;;
24729;SDS011;12832;52.392;13.066;2023-01-28T05:57:10;1.08;;;0.98;;
24729;SDS011;12832;52.392;13.066;2023-01-28T05:59:36;1.08;;;0.98;;
24729;SDS011;12832;52.392;13.066;2023-01-28T06:02:02;1.17;;;1.08;;
24729;SDS011;12832;52.392;13.066;2023-01-28T06:04:28;1.73;;;1.00;;
24729;SDS011;12832;52.392;13.066;2023-01-28T06:06:54;1.08;;;0.98;;
24729;SDS011;12832;52.392;13.066;2023-01-28T06:09:20;1.00;;;0.90;;
24729;SDS011;12832;52.392;13.066;2023-01-28T06:11:47;0.85;;;0.80;;
24729;SDS011;12832;52.392;13.066;2023-01-28T06:14:14;0.77;;;0.77;;
24729;SDS011;12832;52.392;13.066;2023-01-28T06:16:40;0.98;;;0.88;;
24729;SDS011;12832;52.392;13.066;2023-01-28T06:19:06;1.35;;;0.82;;
24729;SDS011;12832;52.392;13.066;2023-01-28T06:21:32;0.90;;;0.90;;
24729;SDS011;12832;52.392;13.066;2023-01-28T06:24:00;1.00;;;0.70;;
24729;SDS011;12832;52.392;13.066;2023-01-28T06:26:26;0.80;;;0.80;;
24729;SDS011;12832;52.392;13.066;2023-01-28T06:28:52;1.02;;;0.93;;
24729;SDS011;12832;52.392;13.066;2023-01-28T06:31:18;0.98;;;0.88;;
24729;SDS011;12832;52.392;13.066;2023-01-28T06:33:44;0.70;;;0.70;;
24729;SDS011;12832;52.392;13.066;2023-01-28T06:36:10;0.80;;;0.80;;
24729;SDS011;12832;52.392;13.066;2023-01-28T06:38:37;1.40;;;0.88;;
24729;SDS011;12832;52.392;13.066;2023-01-28T06:41:03;0.95;;;0.70;;
24729;SDS011;12832;52.392;13.066;2023-01-28T06:43:29;0.60;;;0.60;;
24729;SDS011;12832;52.392;13.066;2023-01-28T06:45:56;0.70;;;0.70;;
24729;SDS011;12832;52.392;13.066;2023-01-28T06:48:23;0.90;;;0.90;;
24729;SDS011;12832;52.392;13.066;2023-01-28T06:50:49;0.60;;;0.60;;
24729;SDS011;12832;52.392;13.066;2023-01-28T06:53:16;0.80;;;0.80;;
24729;SDS011;12832;52.392;13.066;2023-01-28T06:55:42;1.05;;;0.70;;
24729;SDS011;12832;52.392;13.066;2023-01-28T06:58:09;0.70;;;0.70;;
24729;SDS011;12832;52.392;13.066;2023-01-28T07:00:35;0.75;;;0.75;;
24729;SDS011;12832;52.392;13.066;2023-01-28T07:03:02;0.77;;;0.77;;
24729;SDS011;12832;52.392;13.066;2023-01-28T07:05:29;0.70;;;0.70;;
24729;SDS011;12832;52.392;13.066;2023-01-28T07:07:55;0.88;;;0.80;;
24729;SDS011;12832;52.392;13.066;2023-01-28T07:10:21;0.80;;;0.80;;
24729;SDS011;12832;52.392;13.066;2023-01-28T07:12:47;0.68;;;0.68;;
24729;SDS011;12832;52.392;13.066;2023-01-28T07:15:14;0.90;;;0.90;;
24729;SDS011;12832;52.392;13.066;2023-01-28T07:17:40;0.80;;;0.80;;
24729;SDS011;12832;52.392;13.066;2023-01-28T07:20:07;0.82;;;0.77;;
24729;SDS011;12832;52.392;13.066;2023-01-28T07:22:35;1.02;;;0.90;;
24729;SDS011;12832;52.392;13.066;2023-01-28T07:25:04;0.70;;;0.70;;
24729;SDS011;12832;52.392;13.066;2023-01-28T07:27:31;0.70;;;0.70;;
24729;SDS011;12832;52.392;13.066;2023-01-28T07:29:57;0.73;;;0.73;;
24729;SDS011;12832;52.392;13.066;2023-01-28T07:32:23;0.70;;;0.70;;
24729;SDS011;12832;52.392;13.066;2023-01-28T07:34:54;0.75;;;0.75;;
24729;SDS011;12832;52.392;13.066;2023-01-28T07:37:20;0.80;;;0.80;;
24729;SDS011;12832;52.392;13.066;2023-01-28T07:39:47;0.63;;;0.63;;
24729;SDS011;12832;52.392;13.066;2023-01-28T07:42:13;0.75;;;0.75;;
24729;SDS011;12832;52.392;13.066;2023-01-28T07:44:39;0.90;;;0.70;;
24729;SDS011;12832;52.392;13.066;2023-01-28T07:47:05;0.88;;;0.70;;
24729;SDS011;12832;52.392;13.066;2023-01-28T07:49:32;0.70;;;0.70;;
24729;SDS011;12832;52.392;13.066;2023-01-28T07:51:58;0.85;;;0.82;;
24729;SDS011;12832;52.392;13.066;2023-01-28T07:54:25;0.70;;;0.70;;
24729;SDS011;12832;52.392;13.066;2023-01-28T07:56:51;0.68;;;0.68;;
24729;SDS011;12832;52.392;13.066;2023-01-28T07:59:17;0.88;;;0.70;;
24729;SDS011;12832;52.392;13.066;2023-01-28T08:01:43;0.80;;;0.80;;
24729;SDS011;12832;52.392;13.066;2023-01-28T08:04:10;0.75;;;0.75;;
24729;SDS011;12832;52.392;13.066;2023-01-28T08:06:36;0.80;;;0.75;;
24729;SDS011;12832;52.392;13.066;2023-01-28T08:09:03;0.90;;;0.90;;
24729;SDS011;12832;52.392;13.066;2023-01-28T08:11:31;0.82;;;0.82;;
24729;SDS011;12832;52.392;13.066;2023-01-28T08:13:57;0.90;;;0.90;;
24729;SDS011;12832;52.392;13.066;2023-01-28T08:16:23;0.98;;;0.93;;
24729;SDS011;12832;52.392;13.066;2023-01-28T08:18:49;1.00;;;0.95;;
24729;SDS011;12832;52.392;13.066;2023-01-28T08:21:17;0.80;;;0.80;;
24729;SDS011;12832;52.392;13.066;2023-01-28T08:23:43;0.88;;;0.88;;
24729;SDS011;12832;52.392;13.066;2023-01-28T08:26:09;1.00;;;0.65;;
24729;SDS011;12832;52.392;13.066;2023-01-28T08:28:35;0.93;;;0.90;;
24729;SDS011;12832;52.392;13.066;2023-01-28T08:31:01;1.02;;;0.90;;
24729;SDS011;12832;52.392;13.066;2023-01-28T08:33:28;0.80;;;0.80;;
24729;SDS011;12832;52.392;13.066;2023-01-28T08:35:54;1.15;;;0.90;;
24729;SDS011;12832;52.392;13.066;2023-01-28T08:38:20;1.00;;;0.90;;
24729;SDS011;12832;52.392;13.066;2023-01-28T08:40:47;0.68;;;0.68;;
24729;SDS011;12832;52.392;13.066;2023-01-28T08:43:20;0.85;;;0.80;;
24729;SDS011;12832;52.392;13.066;2023-01-28T08:45:46;1.10;;;0.93;;
24729;SDS011;12832;52.392;13.066;2023-01-28T08:48:15;1.27;;;0.90;;
24729;SDS011;12832;52.392;13.066;2023-01-28T08:50:43;0.85;;;0.80;;
24729;SDS011;12832;52.392;13.066;2023-01-28T08:53:10;0.73;;;0.73;;
24729;SDS011;12832;52.392;13.066;2023-01-28T08:55:38;0.90;;;0.85;;
24729;SDS011;12832;52.392;13.066;2023-01-28T08:58:06;2.22;;;0.95;;
24729;SDS011;12832;52.392;13.066;2023-01-28T09:00:35;0.70;;;0.70;;
24729;SDS011;12832;52.392;13.066;2023-01-28T09:03:02;0.80;;;0.80;;
24729;SDS011;12832;52.392;13.066;2023-01-28T09:05:31;1.08;;;0.98;;
24729;SDS011;12832;52.392;13.066;2023-01-28T09:08:08;0.93;;;0.80;;
24729;SDS011;12832;52.392;13.066;2023-01-28T09:10:37;1.00;;;0.90;;
24729;SDS011;12832;52.392;13.066;2023-01-28T09:13:06;1.08;;;1.00;;
24729;SDS011;12832;52.392;13.066;2023-01-28T09:15:34;1.02;;;0.90;;
24729;SDS011;12832;52.392;13.066;2023-01-28T09:18:00;1.20;;;1.00;;
24729;SDS011;12832;52.392;13.066;2023-01-28T09:20:27;1.00;;;0.90;;
24729;SDS011;12832;52.392;13.066;2023-01-28T09:22:53;0.88;;;0.77;;
24729;SDS011;12832;52.392;13.066;2023-01-28T09:25:19;0.98;;;0.98;;
24729;SDS011;12832;52.392;13.066;2023-01-28T09:27:45;1.33;;;0.98;;
24729;SDS011;12832;52.392;13.066;2023-01-28T09:30:11;1.20;;;1.10;;
24729;SDS011;12832;52.392;13.066;2023-01-28T09:32:39;1.00;;;0.90;;
24729;SDS011;12832;52.392;13.066;2023-01-28T09:35:05;1.25;;;0.93;;
24729;SDS011;12832;52.392;13.066;2023-01-28T09:37:33;1.08;;;0.98;;
24729;SDS011;12832;52.392;13.066;2023-01-28T09:39:59;0.82;;;0.82;;
24729;SDS011;12832;52.392;13.066;2023-01-28T09:45:27;1.73;;;0.80;;
24729;SDS011;12832;52.392;13.066;2023-01-28T09:48:04;0.90;;;0.80;;
24729;SDS011;12832;52.392;13.066;2023-01-28T09:50:32;1.15;;;0.88;;
24729;SDS011;12832;52.392;13.066;2023-01-28T09:56:18;1.25;;;0.80;;
24729;SDS011;12832;52.392;13.066;2023-01-28T09:58:50;1.10;;;1.00;;
24729;SDS011;12832;52.392;13.066;2023-01-28T10:06:30;1.15;;;1.02;;
24729;SDS011;12832;52.392;13.066;2023-01-28T10:21:01;1.02;;;0.93;;
24729;SDS011;12832;52.392;13.066;2023-01-28T10:23:40;2.42;;;1.10;;
24729;SDS011;12832;52.392;13.066;2023-01-28T10:26:19;1.20;;;1.00;;
24729;SDS011;12832;52.392;13.066;2023-01-28T10:28:52;1.10;;;1.00;;
24729;SDS011;12832;52.392;13.066;2023-01-28T10:31:21;1.88;;;1.00;;
24729;SDS011;12832;52.392;13.066;2023-01-28T10:33:48;1.17;;;0.90;;
24729;SDS011;12832;52.392;13.066;2023-01-28T10:36:14;1.17;;;1.08;;
24729;SDS011;12832;52.392;13.066;2023-01-28T10:38:42;1.20;;;1.10;;
24729;SDS011;12832;52.392;13.066;2023-01-28T10:41:09;1.30;;;1.20;;
24729;SDS011;12832;52.392;13.066;2023-01-28T10:43:38;0.98;;;0.80;;
24729;SDS011;12832;52.392;13.066;2023-01-28T10:49:14;1.08;;;1.02;;
24729;SDS011;12832;52.392;13.066;2023-01-28T10:51:46;1.00;;;1.00;;
24729;SDS011;12832;52.392;13.066;2023-01-28T10:54:26;0.93;;;0.90;;
24729;SDS011;12832;52.392;13.066;2023-01-28T10:56:54;1.13;;;1.02;;
24729;SDS011;12832;52.392;13.066;2023-01-28T10:59:26;1.05;;;0.95;;
24729;SDS011;12832;52.392;13.066;2023-01-28T11:01:58;1.20;;;1.10;;
24729;SDS011;12832;52.392;13.066;2023-01-28T11:04:29;0.90;;;0.90;;
24729;SDS011;12832;52.392;13.066;2023-01-28T11:07:15;1.20;;;1.10;;
24729;SDS011;12832;52.392;13.066;2023-01-28T11:09:45;0.90;;;0.80;;
24729;SDS011;12832;52.392;13.066;2023-01-28T11:14:49;1.38;;;1.10;;
24729;SDS011;12832;52.392;13.066;2023-01-28T11:17:17;1.25;;;1.15;;
24729;SDS011;12832;52.392;13.066;2023-01-28T11:19:47;1.15;;;1.08;;
24729;SDS011;12832;52.392;13.066;2023-01-28T11:22:19;1.30;;;1.20;;
24729;SDS011;12832;52.392;13.066;2023-01-28T11:24:48;0.85;;;0.85;;
24729;SDS011;12832;52.392;13.066;2023-01-28T11:27:15;1.30;;;1.05;;
24729;SDS011;12832;52.392;13.066;2023-01-28T11:29:43;1.40;;;1.30;;
24729;SDS011;12832;52.392;13.066;2023-01-28T11:32:18;1.35;;;0.90;;
24729;SDS011;12832;52.392;13.066;2023-01-28T11:34:50;0.93;;;0.90;;
24729;SDS011;12832;52.392;13.066;2023-01-28T11:37:19;1.67;;;1.20;;
24729;SDS011;12832;52.392;13.066;2023-01-28T11:39:47;1.20;;;1.10;;
24729;SDS011;12832;52.392;13.066;2023-01-28T11:42:17;1.10;;;1.00;;
24729;SDS011;12832;52.392;13.066;2023-01-28T11:44:45;1.10;;;1.10;;
24729;SDS011;12832;52.392;13.066;2023-01-28T11:53:05;1.10;;;1.00;;
24729;SDS011;12832;52.392;13.066;2023-01-28T11:55:46;1.17;;;1.08;;
24729;SDS011;12832;52.392;13.066;2023-01-28T12:06:56;1.23;;;1.02;;
24729;SDS011;12832;52.392;13.066;2023-01-28T12:15:08;1.10;;;1.00;;
24729;SDS011;12832;52.392;13.066;2023-01-28T12:18:10;1.38;;;1.23;;
24729;SDS011;12832;52.392;13.066;2023-01-28T12:21:05;1.38;;;1.20;;
24729;SDS011;12832;52.392;13.066;2023-01-28T12:26:22;1.23;;;1.13;;
24729;SDS011;12832;52.392;13.066;2023-01-28T12:29:14;1.23;;;1.02;;
24729;SDS011;12832;52.392;13.066;2023-01-28T12:38:02;1.20;;;1.10;;
24729;SDS011;12832;52.392;13.066;2023-01-28T12:43:11;1.05;;;0.95;;
24729;SDS011;12832;52.392;13.066;2023-01-28T12:45:39;1.30;;;1.20;;
24729;SDS011;12832;52.392;13.066;2023-01-28T12:48:16;1.10;;;1.00;;
24729;SDS011;12832;52.392;13.066;2023-01-28T12:50:47;1.25;;;1.15;;
24729;SDS011;12832;52.392;13.066;2023-01-28T12:53:25;1.30;;;1.20;;
24729;SDS011;12832;52.392;13.066;2023-01-28T12:56:03;1.23;;;1.13;;
24729;SDS011;12832;52.392;13.066;2023-01-28T12:58:44;1.33;;;1.00;;
24729;SDS011;12832;52.392;13.066;2023-01-28T13:01:20;1.60;;;1.20;;
24729;SDS011;12832;52.392;13.066;2023-01-28T13:04:00;1.45;;;1.20;;
24729;SDS011;12832;52.392;13.066;2023-01-28T13:06:39;1.40;;;1.30;;
24729;SDS011;12832;52.392;13.066;2023-01-28T13:09:15;1.08;;;1.08;;
24729;SDS011;12832;52.392;13.066;2023-01-28T13:11:44;1.77;;;1.27;;
24729;SDS011;12832;52.392;13.066;2023-01-28T13:14:14;1.30;;;1.20;;
24729;SDS011;12832;52.392;13.066;2023-01-28T13:16:41;1.65;;;1.00;;
24729;SDS011;12832;52.392;13.066;2023-01-28T13:21:43;1.73;;;1.27;;
24729;SDS011;12832;52.392;13.066;2023-01-28T13:26:48;1.40;;;1.13;;
24729;SDS011;12832;52.392;13.066;2023-01-28T13:31:48;1.38;;;1.27;;
24729;SDS011;12832;52.392;13.066;2023-01-28T13:36:59;1.30;;;1.20;;
24729;SDS011;12832;52.392;13.066;2023-01-28T13:39:50;1.20;;;1.10;;
24729;SDS011;12832;52.392;13.066;2023-01-28T13:44:44;1.20;;;1.10;;
24729;SDS011;12832;52.392;13.066;2023-01-28T13:47:26;1.05;;;1.00;;
24729;SDS011;12832;52.392;13.066;2023-01-28T13:49:59;1.10;;;1.00;;
24729;SDS011;12832;52.392;13.066;2023-01-28T13:52:28;1.17;;;1.10;;
24729;SDS011;12832;52.392;13.066;2023-01-28T13:55:00;1.30;;;1.20;;
24729;SDS011;12832;52.392;13.066;2023-01-28T14:03:47;1.40;;;1.30;;
24729;SDS011;12832;52.392;13.066;2023-01-28T14:06:36;1.38;;;1.27;;
24729;SDS011;12832;52.392;13.066;2023-01-28T14:12:26;1.33;;;1.13;;
24729;SDS011;12832;52.392;13.066;2023-01-28T14:17:43;1.10;;;1.00;;
24729;SDS011;12832;52.392;13.066;2023-01-28T14:20:18;1.40;;;1.30;;
24729;SDS011;12832;52.392;13.066;2023-01-28T14:23:03;1.45;;;1.30;;
24729;SDS011;12832;52.392;13.066;2023-01-28T14:25:34;1.70;;;1.60;;
24729;SDS011;12832;52.392;13.066;2023-01-28T14:28:15;1.23;;;1.13;;
24729;SDS011;12832;52.392;13.066;2023-01-28T14:30:56;1.20;;;1.10;;
24729;SDS011;12832;52.392;13.066;2023-01-28T14:33:30;1.13;;;1.02;;
24729;SDS011;12832;52.392;13.066;2023-01-28T14:35:57;1.20;;;1.10;;
24729;SDS011;12832;52.392;13.066;2023-01-28T14:38:23;1.20;;;1.10;;
24729;SDS011;12832;52.392;13.066;2023-01-28T14:40:50;1.25;;;1.13;;
24729;SDS011;12832;52.392;13.066;2023-01-28T14:43:19;1.40;;;1.25;;
24729;SDS011;12832;52.392;13.066;2023-01-28T14:45:55;1.13;;;1.02;;
24729;SDS011;12832;52.392;13.066;2023-01-28T14:49:09;1.08;;;0.98;;
24729;SDS011;12832;52.392;13.066;2023-01-28T14:51:48;1.20;;;1.10;;
24729;SDS011;12832;52.392;13.066;2023-01-28T14:57:20;1.10;;;1.00;;
24729;SDS011;12832;52.392;13.066;2023-01-28T15:00:51;1.17;;;1.08;;
24729;SDS011;12832;52.392;13.066;2023-01-28T15:03:08;1.00;;;0.90;;
24729;SDS011;12832;52.392;13.066;2023-01-28T15:08:39;1.30;;;1.20;;
24729;SDS011;12832;52.392;13.066;2023-01-28T15:11:10;1.40;;;1.20;;
24729;SDS011;12832;52.392;13.066;2023-01-28T15:13:40;1.48;;;1.00;;
24729;SDS011;12832;52.392;13.066;2023-01-28T15:16:17;1.42;;;1.33;;
24729;SDS011;12832;52.392;13.066;2023-01-28T15:18:53;1.40;;;1.30;;
24729;SDS011;12832;52.392;13.066;2023-01-28T15:21:41;1.23;;;1.10;;
24729;SDS011;12832;52.392;13.066;2023-01-28T15:24:11;1.30;;;1.20;;
24729;SDS011;12832;52.392;13.066;2023-01-28T15:26:44;1.15;;;1.05;;
24729;SDS011;12832;52.392;13.066;2023-01-28T15:29:22;1.13;;;1.10;;
24729;SDS011;12832;52.392;13.066;2023-01-28T15:31:50;1.10;;;1.00;;
24729;SDS011;12832;52.392;13.066;2023-01-28T15:34:17;1.25;;;1.15;;
24729;SDS011;12832;52.392;13.066;2023-01-28T15:36:44;1.02;;;1.02;;
24729;SDS011;12832;52.392;13.066;2023-01-28T15:39:19;1.48;;;1.38;;
24729;SDS011;12832;52.392;13.066;2023-01-28T15:41:48;1.13;;;1.02;;
24729;SDS011;12832;52.392;13.066;2023-01-28T15:44:18;1.30;;;1.20;;
24729;SDS011;12832;52.392;13.066;2023-01-28T15:47:00;1.50;;;1.40;;
24729;SDS011;12832;52.392;13.066;2023-01-28T15:49:30;1.40;;;1.27;;
24729;SDS011;12832;52.392;13.066;2023-01-28T15:52:01;1.23;;;1.13;;
24729;SDS011;12832;52.392;13.066;2023-01-28T15:54:27;1.25;;;1.15;;
24729;SDS011;12832;52.392;13.066;2023-01-28T15:56:55;1.00;;;0.77;;
24729;SDS011;12832;52.392;13.066;2023-01-28T15:59:25;1.65;;;1.42;;
24729;SDS011;12832;52.392;13.066;2023-01-28T16:04:42;1.55;;;1.05;;
24729;SDS011;12832;52.392;13.066;2023-01-28T16:07:08;0.93;;;0.93;;
24729;SDS011;12832;52.392;13.066;2023-01-28T16:09:34;1.10;;;1.00;;
24729;SDS011;12832;52.392;13.066;2023-01-28T16:12:02;0.82;;;0.82;;
24729;SDS011;12832;52.392;13.066;2023-01-28T16:14:32;1.05;;;1.00;;
24729;SDS011;12832;52.392;13.066;2023-01-28T16:17:04;1.30;;;1.00;;
24729;SDS011;12832;52.392;13.066;2023-01-28T16:19:36;1.40;;;1.30;;
24729;SDS011;12832;52.392;13.066;2023-01-28T16:22:05;0.82;;;0.82;;
24729;SDS011;12832;52.392;13.066;2023-01-28T16:24:33;1.23;;;1.13;;
24729;SDS011;12832;52.392;13.066;2023-01-28T16:27:04;0.80;;;0.80;;
24729;SDS011;12832;52.392;13.066;2023-01-28T16:29:32;1.15;;;1.05;;
24729;SDS011;12832;52.392;13.066;2023-01-28T16:31:59;0.90;;;0.90;;
24729;SDS011;12832;52.392;13.066;2023-01-28T16:34:25;1.00;;;1.00;;
24729;SDS011;12832;52.392;13.066;2023-01-28T16:37:00;0.93;;;0.90;;
24729;SDS011;12832;52.392;13.066;2023-01-28T16:39:26;2.75;;;1.35;;
24729;SDS011;12832;52.392;13.066;2023-01-28T16:41:52;1.15;;;1.05;;
24729;SDS011;12832;52.392;13.066;2023-01-28T16:44:21;1.30;;;1.00;;
24729;SDS011;12832;52.392;13.066;2023-01-28T16:46:47;1.08;;;0.95;;
24729;SDS011;12832;52.392;13.066;2023-01-28T16:49:13;1.10;;;1.00;;
24729;SDS011;12832;52.392;13.066;2023-01-28T16:51:40;0.80;;;0.80;;